Roberts, ID

4:38 PM MDT on September 30, 2014 (GMT -0600)
ITD Sage Junction I-15/SH-33 ID US | Change Station
CLOSE
Current Station
Personal Weather Station
Location: Hamer, ID
Elevation: 4950 ft
Nearby Weather Stations

Elev 4950 ft 43.83 °N, 112.20 °W | Updated 53 minutes ago

Overcast
Overcast
56 °F
Feels Like 56 °F
N
17
Wind Variable Wind from West
Gusts 23.0 mph

Today
High -- | Low -- °F
--% Chance of Precip.
Yesterday
High -- | Low -- °F
Precip. -- in
7:25 AM 7:11 PM
Waxing Crescent, 40% visible
Pressure 29.80 in
Visibility 10.0 miles
Clouds Mostly Cloudy 2600 ft
Mostly Cloudy 4300 ft
Mostly Cloudy 6000 ft
Dew Point 46 °F
Humidity 68%
Rainfall -999.00 in
Snow Depth 2 in , 0 in , 1 in
UV 2 out of 12
Pollen 6.10 out of 12
PM2.5 Good
Flu Activity Not available.
METAR KIDA 302153Z 21018G24KT 10SM BKN026 BKN043 BKN060TCU 14/08 A2985 RMK AO2 PK WND 22026/2058 LTG DSNT NW SLP089 TCU DSNT ALQDS SHRA DSNT W-N MOV NE T01390078

More Conditions Fewer Conditions

Pressure 29.80 in
Visibility 10.0 miles
Clouds Mostly Cloudy 2600 ft
Mostly Cloudy 4300 ft
Mostly Cloudy 6000 ft
Dew Point 46 °F
Humidity 68%
Rainfall -999.00 in
Snow Depth 2 in , 0 in , 1 in
UV 2 out of 12
Pollen 6.10 out of 12
PM2.5 Good
Flu Activity Not available.
METAR KIDA 302153Z 21018G24KT 10SM BKN026 BKN043 BKN060TCU 14/08 A2985 RMK AO2 PK WND 22026/2058 LTG DSNT NW SLP089 TCU DSNT ALQDS SHRA DSNT W-N MOV NE T01390078

More Conditions Fewer Conditions

10-Day Weather Forecast

Almanac

Astronomy

Sep. 30, 2014 Rise Set
Actual Time 7:25 AM MDT 7:11 PM MDT
Civil Twilight 6:56 AM MDT 7:39 PM MDT
Nautical Twilight 6:22 AM MDT 8:12 PM MDT
Astronomical Twilight 5:49 AM MDT 8:46 PM MDT
Moon 1:45 PM MDT 11:36 PM MDT
Length of Visible Light 12h 43m
Length of Day
11h 46m
Tomorrow will be 2m 58s shorter.
Waxing Crescent, 40% of the Moon is Illuminated
Today
Waxing Crescent
Oct 1
First Quarter
Oct 8
Full
Oct 15
Last Quarter
Oct 23
New

Today's Extremes

State Highs State Lows

Community

WunderPhotos

Upload Photos

1,757,767 photos uploaded!

Nearby

Air Quality

  Air Quality AQ Index Pollutant
Yesterday Good
PM2.5
Current Good
PM2.5
Tuesday Good
PM2.5
Wednesday Good
PM2.5
Thursday Good
PM2.5

Snow Depth

Station Depth Elevation
Humboldt Gulch 2 in 4250 ft
Emigrant Summit 0 in 7390 ft
Mud Flat 1 in 5730 ft
Cool Creek 0 in 6280 ft
Wilson Creek 0 in 7120 ft

Earthquake Activity

City Distance Mag. Time & Date
No recent earthquake activity has been reported nearby.
Minimum magnitude displayed is 2.5.

Coastal Water Temperatures

Place Temperature
No Stations Reporting

Nearby Weather Stations